Mt Champion Express — A8QN4 — position and weather

sailwx.info

Track history (hours):
 
Tides and Currents Weather Stations Pressure Air Temp Water Temp Dewpoint Dewpoint Depression Visibility Wind Speed Wind Dir Waves Ship Positions

Mt Champion Express

Last reported at 2015-Mar-29 02:33 UTC. Time now 2015-Mar-29 03:14 UTC.
Position N 49°18' W 123°14'.

Length 192 m; draft 7 m.

Type: Tanker. MMSI: 636013968.

Date/timePositionNaut miles runAvg speedWind from/ knotsBaromVisibWave heightAir tempDewpointWater temp
2015-Mar-29 02:33N 49°18' W 123°14'0 0.0
2015-Mar-29 01:33N 49°18' W 123°14'0 0.0
2015-Mar-29 00:33N 49°18' W 123°14'0 0.1
2015-Mar-28 23:30N 49°18' W 123°14'0 0.0
2015-Mar-28 22:33N 49°18' W 123°14'0 0.0
2015-Mar-28 21:33N 49°18' W 123°14'0 0.0
2015-Mar-28 20:30N 49°18' W 123°14'0 0.1
2015-Mar-28 19:33N 49°18' W 123°14'0 0.0
2015-Mar-28 18:33N 49°18' W 123°14'0 0.0
2015-Mar-28 17:33N 49°18' W 123°14'0 0.0
2015-Mar-28 16:27N 49°18' W 123°14'0 0.0
2015-Mar-28 15:33N 49°18' W 123°14'0 0.0
2015-Mar-28 14:30N 49°18' W 123°14'0 0.1
2015-Mar-28 13:33N 49°18' W 123°14'0 0.0
2015-Mar-28 12:33N 49°18' W 123°14'0 0.0
2015-Mar-28 11:33N 49°18' W 123°14'0 0.0
2015-Mar-28 10:33N 49°18' W 123°14'0 0.1
2015-Mar-28 09:33N 49°18' W 123°14'0 0.0
2015-Mar-28 08:33N 49°18' W 123°14'0 0.0
2015-Mar-28 07:33N 49°18' W 123°14'0 0.1
2015-Mar-28 06:33N 49°18' W 123°14'0 0.0
2015-Mar-28 05:30N 49°18' W 123°14'0 0.1
2015-Mar-28 04:30N 49°18' W 123°14'0 0.1
2015-Mar-28 03:33N 49°18' W 123°14'0 0.0
2015-Mar-28 02:30N 49°18' W 123°14'0 0.2
2015-Mar-28 01:33N 49°18' W 123°15'0 0.1
2015-Mar-28 00:33N 49°18' W 123°15'0 0.1
2015-Mar-27 23:33N 49°18' W 123°15'0 0.0
2015-Mar-27 22:33N 49°18' W 123°14'0 0.0
2015-Mar-27 21:33N 49°18' W 123°14'0 0.0
2015-Mar-27 20:33N 49°18' W 123°14'0 0.1
2015-Mar-27 19:30N 49°18' W 123°14'0 0.1
2015-Mar-27 18:30N 49°18' W 123°14'0 0.0
2015-Mar-27 17:33N 49°18' W 123°14'0 0.0
2015-Mar-27 16:33N 49°18' W 123°14'0 0.0
2015-Mar-27 15:33N 49°18' W 123°14'0 0.1
2015-Mar-27 14:30N 49°18' W 123°15'0 0.0
2015-Mar-27 13:33N 49°18' W 123°15'0 0.0
2015-Mar-27 12:33N 49°18' W 123°15'0 0.0
2015-Mar-27 11:33N 49°18' W 123°15'0 0.5
2015-Mar-27 10:33N 49°18' W 123°15'8 8.1
2015-Mar-27 09:33N 49°10' W 123°20'9 9.5
2015-Mar-27 08:33N 49°01' W 123°16'1110.8
2015-Mar-27 07:33N 48°54' W 123°04'9 9.0
2015-Mar-27 06:33N 48°45' W 123°06'10 9.9
2015-Mar-27 05:33N 48°36' W 123°14'1211.9
2015-Mar-27 04:33N 48°25' W 123°12'7 7.3
2015-Mar-27 03:33N 48°21' W 123°22'0 0.4
2015-Mar-27 02:33N 48°21' W 123°21'0 0.0
2015-Mar-27 01:33N 48°21' W 123°22'0 0.1
2015-Mar-27 00:33N 48°21' W 123°22'0 0.2
2015-Mar-26 23:33N 48°21' W 123°22'0 0.1
2015-Mar-26 22:33N 48°21' W 123°22'0 0.1
2015-Mar-26 21:33N 48°21' W 123°22'5 5.5
2015-Mar-26 20:33N 48°16' W 123°26'7 6.6
2015-Mar-26 19:31N 48°13' W 123°36'7 7.7
2015-Mar-26 18:33N 48°14' W 123°47'8 7.5
2015-Mar-26 17:33N 48°14' W 123°58'8 7.5
2015-Mar-26 16:34N 48°17' W 124°08'10 9.9
2015-Mar-26 15:33N 48°22' W 124°22'1212.2
2015-Mar-26 14:33N 48°27' W 124°38'1111.1
2015-Mar-26 13:33N 48°29' W 124°55'1110.8
2015-Mar-26 12:34N 48°21' W 125°07'1111.1
2015-Mar-26 11:33N 48°11' W 125°14'  
2015-Mar-23 09:16N 37°33' W 123°07'912.0
2015-Mar-23 08:33N 37°38' W 122°58'1110.7
2015-Mar-23 07:33N 37°44' W 122°47'10 9.7
2015-Mar-23 06:33N 37°47' W 122°35'9 9.2
2015-Mar-23 05:33N 37°51' W 122°25'10 9.7
2015-Mar-23 04:33N 38°01' W 122°24'1311.7
2015-Mar-23 03:28N 38°02' W 122°08'21 6.5
2015-Mar-23 00:13N 38°03' W 121°42'6 5.7
2015-Mar-22 23:06N 38°04' W 121°34'5 7.1
2015-Mar-22 22:26N 38°02' W 121°28'6 6.8
2015-Mar-22 21:34N 37°58' W 121°22'2 2.3
2015-Mar-22 20:33N 37°57' W 121°20'0 0.0
2015-Mar-22 19:33N 37°57' W 121°20'0 0.0
2015-Mar-22 18:33N 37°57' W 121°20'0 0.0
2015-Mar-22 17:30N 37°57' W 121°20'0 0.0
2015-Mar-22 16:33N 37°57' W 121°20'0 0.0
2015-Mar-22 15:30N 37°57' W 121°20'0 0.0
2015-Mar-22 14:30N 37°57' W 121°20'0 0.0
2015-Mar-22 13:30N 37°57' W 121°20'0 0.0
2015-Mar-22 12:30N 37°57' W 121°20'0 0.0
2015-Mar-22 11:33N 37°57' W 121°20'0 0.0
2015-Mar-22 10:33N 37°57' W 121°20'0 0.0
2015-Mar-22 09:33N 37°57' W 121°20'0 0.0
2015-Mar-22 08:33N 37°57' W 121°20'0 0.0
2015-Mar-22 07:30N 37°57' W 121°20'0 0.0
2015-Mar-22 06:33N 37°57' W 121°20'0 0.0
2015-Mar-22 05:33N 37°57' W 121°20'0 0.0
2015-Mar-22 04:27N 37°57' W 121°20'0 0.0
2015-Mar-22 03:30N 37°57' W 121°20'0 0.0
2015-Mar-22 02:33N 37°57' W 121°20'0 0.0
2015-Mar-22 01:30N 37°57' W 121°20'0 0.0
2015-Mar-22 00:33N 37°57' W 121°20'0 0.0
2015-Mar-21 23:33N 37°57' W 121°20'0 0.0
2015-Mar-21 22:30N 37°57' W 121°20'0 0.0
2015-Mar-21 21:33N 37°57' W 121°20'0 0.0
2015-Mar-21 20:33N 37°57' W 121°20'0 0.0
2015-Mar-21 19:27N 37°57' W 121°20'0 0.0
2015-Mar-21 18:30N 37°57' W 121°20'0 0.0
2015-Mar-21 17:33N 37°57' W 121°20'0 0.0
2015-Mar-21 16:30N 37°57' W 121°20'0 0.0
2015-Mar-21 15:33N 37°57' W 121°20'0 0.0
2015-Mar-21 14:33N 37°57' W 121°20'0 0.0
2015-Mar-21 13:30N 37°57' W 121°20'0 0.0
2015-Mar-21 12:27N 37°57' W 121°20'0 0.0
2015-Mar-21 11:30N 37°57' W 121°20'0 0.0
2015-Mar-21 10:30N 37°57' W 121°20'0 0.0
2015-Mar-21 09:33N 37°57' W 121°20'0 0.0
2015-Mar-21 08:30N 37°57' W 121°20'0 0.0
2015-Mar-21 07:30N 37°57' W 121°20'0 0.0
2015-Mar-21 06:33N 37°57' W 121°20'0 0.0
2015-Mar-21 05:30N 37°57' W 121°20'0 0.0
2015-Mar-21 04:30N 37°57' W 121°20'0 0.0
2015-Mar-21 03:30N 37°57' W 121°20'0 0.0
2015-Mar-21 02:33N 37°57' W 121°20'0 0.0
2015-Mar-21 01:33N 37°57' W 121°20'0 0.0
2015-Mar-21 00:33N 37°57' W 121°20'0 0.0
2015-Mar-20 23:33N 37°57' W 121°20'0 0.0
2015-Mar-20 22:33N 37°57' W 121°20'0 0.0
2015-Mar-20 21:30N 37°57' W 121°20'0 0.0
2015-Mar-20 20:30N 37°57' W 121°20'0 0.0
2015-Mar-20 19:27N 37°57' W 121°20'0 0.0
2015-Mar-20 18:30N 37°57' W 121°20'0 0.0
2015-Mar-20 17:30N 37°57' W 121°20'1 0.6
2015-Mar-20 16:33N 37°57' W 121°19'2 2.3
2015-Mar-20 15:33N 37°58' W 121°22'1 1.3
2015-Mar-20 14:33N 37°59' W 121°23'6 5.6
2015-Mar-20 13:31N 38°02' W 121°29'6 6.0
2015-Mar-20 12:33N 38°06' W 121°35'6 5.2
2015-Mar-20 11:28N 38°03' W 121°41'6 6.9
2015-Mar-20 10:32N 38°01' W 121°49'19 8.5
2015-Mar-20 08:14N 38°04' W 122°13'913.1
2015-Mar-20 07:33N 38°01' W 122°24'1111.1
2015-Mar-20 06:33N 37°50' W 122°24'1110.9
2015-Mar-20 05:34N 37°46' W 122°37'12 8.8
2015-Mar-20 04:12N 37°35' W 122°40'811.7
2015-Mar-20 03:33N 37°27' W 122°40'1111.4
2015-Mar-20 02:33N 37°15' W 122°40'11 9.5
2015-Mar-20 01:24N 37°05' W 122°38'2111.1
2015-Mar-19 23:31N 36°46' W 122°26'  
Track history (hours):
 
Tides and Currents Weather Stations Pressure Air Temp Water Temp Dewpoint Dewpoint Depression Visibility Wind Speed Wind Dir Waves Ship Positions

Mt Champion Express

Last reported at 2015-Mar-29 02:33 UTC. Time now 2015-Mar-29 03:14 UTC.
Position N 49°18' W 123°14'.

Length 192 m; draft 7 m.

Type: Tanker. MMSI: 636013968.

Date/timePositionNaut miles runAvg speedWind from/ knotsBaromVisibWave heightAir tempDewpointWater temp
2015-Mar-29 02:33N 49°18' W 123°14'0 0.0
2015-Mar-29 01:33N 49°18' W 123°14'0 0.0
2015-Mar-29 00:33N 49°18' W 123°14'0 0.1
2015-Mar-28 23:30N 49°18' W 123°14'0 0.0
2015-Mar-28 22:33N 49°18' W 123°14'0 0.0
2015-Mar-28 21:33N 49°18' W 123°14'0 0.0
2015-Mar-28 20:30N 49°18' W 123°14'0 0.1
2015-Mar-28 19:33N 49°18' W 123°14'0 0.0
2015-Mar-28 18:33N 49°18' W 123°14'0 0.0
2015-Mar-28 17:33N 49°18' W 123°14'0 0.0
2015-Mar-28 16:27N 49°18' W 123°14'0 0.0
2015-Mar-28 15:33N 49°18' W 123°14'0 0.0
2015-Mar-28 14:30N 49°18' W 123°14'0 0.1
2015-Mar-28 13:33N 49°18' W 123°14'0 0.0
2015-Mar-28 12:33N 49°18' W 123°14'0 0.0
2015-Mar-28 11:33N 49°18' W 123°14'0 0.0
2015-Mar-28 10:33N 49°18' W 123°14'0 0.1
2015-Mar-28 09:33N 49°18' W 123°14'0 0.0
2015-Mar-28 08:33N 49°18' W 123°14'0 0.0
2015-Mar-28 07:33N 49°18' W 123°14'0 0.1
2015-Mar-28 06:33N 49°18' W 123°14'0 0.0
2015-Mar-28 05:30N 49°18' W 123°14'0 0.1
2015-Mar-28 04:30N 49°18' W 123°14'0 0.1
2015-Mar-28 03:33N 49°18' W 123°14'0 0.0
2015-Mar-28 02:30N 49°18' W 123°14'0 0.2
2015-Mar-28 01:33N 49°18' W 123°15'0 0.1
2015-Mar-28 00:33N 49°18' W 123°15'0 0.1
2015-Mar-27 23:33N 49°18' W 123°15'0 0.0
2015-Mar-27 22:33N 49°18' W 123°14'0 0.0
2015-Mar-27 21:33N 49°18' W 123°14'0 0.0
2015-Mar-27 20:33N 49°18' W 123°14'0 0.1
2015-Mar-27 19:30N 49°18' W 123°14'0 0.1
2015-Mar-27 18:30N 49°18' W 123°14'0 0.0
2015-Mar-27 17:33N 49°18' W 123°14'0 0.0
2015-Mar-27 16:33N 49°18' W 123°14'0 0.0
2015-Mar-27 15:33N 49°18' W 123°14'0 0.1
2015-Mar-27 14:30N 49°18' W 123°15'0 0.0
2015-Mar-27 13:33N 49°18' W 123°15'0 0.0
2015-Mar-27 12:33N 49°18' W 123°15'0 0.0
2015-Mar-27 11:33N 49°18' W 123°15'0 0.5
2015-Mar-27 10:33N 49°18' W 123°15'8 8.1
2015-Mar-27 09:33N 49°10' W 123°20'9 9.5
2015-Mar-27 08:33N 49°01' W 123°16'1110.8
2015-Mar-27 07:33N 48°54' W 123°04'9 9.0
2015-Mar-27 06:33N 48°45' W 123°06'10 9.9
2015-Mar-27 05:33N 48°36' W 123°14'1211.9
2015-Mar-27 04:33N 48°25' W 123°12'7 7.3
2015-Mar-27 03:33N 48°21' W 123°22'0 0.4
2015-Mar-27 02:33N 48°21' W 123°21'0 0.0
2015-Mar-27 01:33N 48°21' W 123°22'0 0.1
2015-Mar-27 00:33N 48°21' W 123°22'0 0.2
2015-Mar-26 23:33N 48°21' W 123°22'0 0.1
2015-Mar-26 22:33N 48°21' W 123°22'0 0.1
2015-Mar-26 21:33N 48°21' W 123°22'5 5.5
2015-Mar-26 20:33N 48°16' W 123°26'7 6.6
2015-Mar-26 19:31N 48°13' W 123°36'7 7.7
2015-Mar-26 18:33N 48°14' W 123°47'8 7.5
2015-Mar-26 17:33N 48°14' W 123°58'8 7.5
2015-Mar-26 16:34N 48°17' W 124°08'10 9.9
2015-Mar-26 15:33N 48°22' W 124°22'1212.2
2015-Mar-26 14:33N 48°27' W 124°38'1111.1
2015-Mar-26 13:33N 48°29' W 124°55'1110.8
2015-Mar-26 12:34N 48°21' W 125°07'1111.1
2015-Mar-26 11:33N 48°11' W 125°14'  
2015-Mar-23 09:16N 37°33' W 123°07'912.0
2015-Mar-23 08:33N 37°38' W 122°58'1110.7
2015-Mar-23 07:33N 37°44' W 122°47'10 9.7
2015-Mar-23 06:33N 37°47' W 122°35'9 9.2
2015-Mar-23 05:33N 37°51' W 122°25'10 9.7
2015-Mar-23 04:33N 38°01' W 122°24'1311.7
2015-Mar-23 03:28N 38°02' W 122°08'21 6.5
2015-Mar-23 00:13N 38°03' W 121°42'6 5.7
2015-Mar-22 23:06N 38°04' W 121°34'5 7.1
2015-Mar-22 22:26N 38°02' W 121°28'6 6.8
2015-Mar-22 21:34N 37°58' W 121°22'2 2.3
2015-Mar-22 20:33N 37°57' W 121°20'0 0.0
2015-Mar-22 19:33N 37°57' W 121°20'0 0.0
2015-Mar-22 18:33N 37°57' W 121°20'0 0.0
2015-Mar-22 17:30N 37°57' W 121°20'0 0.0
2015-Mar-22 16:33N 37°57' W 121°20'0 0.0
2015-Mar-22 15:30N 37°57' W 121°20'0 0.0
2015-Mar-22 14:30N 37°57' W 121°20'0 0.0
2015-Mar-22 13:30N 37°57' W 121°20'0 0.0
2015-Mar-22 12:30N 37°57' W 121°20'0 0.0
2015-Mar-22 11:33N 37°57' W 121°20'0 0.0
2015-Mar-22 10:33N 37°57' W 121°20'0 0.0
2015-Mar-22 09:33N 37°57' W 121°20'0 0.0
2015-Mar-22 08:33N 37°57' W 121°20'0 0.0
2015-Mar-22 07:30N 37°57' W 121°20'0 0.0
2015-Mar-22 06:33N 37°57' W 121°20'0 0.0
2015-Mar-22 05:33N 37°57' W 121°20'0 0.0
2015-Mar-22 04:27N 37°57' W 121°20'0 0.0
2015-Mar-22 03:30N 37°57' W 121°20'0 0.0
2015-Mar-22 02:33N 37°57' W 121°20'0 0.0
2015-Mar-22 01:30N 37°57' W 121°20'0 0.0
2015-Mar-22 00:33N 37°57' W 121°20'0 0.0
2015-Mar-21 23:33N 37°57' W 121°20'0 0.0
2015-Mar-21 22:30N 37°57' W 121°20'0 0.0
2015-Mar-21 21:33N 37°57' W 121°20'0 0.0
2015-Mar-21 20:33N 37°57' W 121°20'0 0.0
2015-Mar-21 19:27N 37°57' W 121°20'0 0.0
2015-Mar-21 18:30N 37°57' W 121°20'0 0.0
2015-Mar-21 17:33N 37°57' W 121°20'0 0.0
2015-Mar-21 16:30N 37°57' W 121°20'0 0.0
2015-Mar-21 15:33N 37°57' W 121°20'0 0.0
2015-Mar-21 14:33N 37°57' W 121°20'0 0.0
2015-Mar-21 13:30N 37°57' W 121°20'0 0.0
2015-Mar-21 12:27N 37°57' W 121°20'0 0.0
2015-Mar-21 11:30N 37°57' W 121°20'0 0.0
2015-Mar-21 10:30N 37°57' W 121°20'0 0.0
2015-Mar-21 09:33N 37°57' W 121°20'0 0.0
2015-Mar-21 08:30N 37°57' W 121°20'0 0.0
2015-Mar-21 07:30N 37°57' W 121°20'0 0.0
2015-Mar-21 06:33N 37°57' W 121°20'0 0.0
2015-Mar-21 05:30N 37°57' W 121°20'0 0.0
2015-Mar-21 04:30N 37°57' W 121°20'0 0.0
2015-Mar-21 03:30N 37°57' W 121°20'0 0.0
2015-Mar-21 02:33N 37°57' W 121°20'0 0.0
2015-Mar-21 01:33N 37°57' W 121°20'0 0.0
2015-Mar-21 00:33N 37°57' W 121°20'0 0.0
2015-Mar-20 23:33N 37°57' W 121°20'0 0.0
2015-Mar-20 22:33N 37°57' W 121°20'0 0.0
2015-Mar-20 21:30N 37°57' W 121°20'0 0.0
2015-Mar-20 20:30N 37°57' W 121°20'0 0.0
2015-Mar-20 19:27N 37°57' W 121°20'0 0.0
2015-Mar-20 18:30N 37°57' W 121°20'0 0.0
2015-Mar-20 17:30N 37°57' W 121°20'1 0.6
2015-Mar-20 16:33N 37°57' W 121°19'2 2.3
2015-Mar-20 15:33N 37°58' W 121°22'1 1.3
2015-Mar-20 14:33N 37°59' W 121°23'6 5.6
2015-Mar-20 13:31N 38°02' W 121°29'6 6.0
2015-Mar-20 12:33N 38°06' W 121°35'6 5.2
2015-Mar-20 11:28N 38°03' W 121°41'6 6.9
2015-Mar-20 10:32N 38°01' W 121°49'19 8.5
2015-Mar-20 08:14N 38°04' W 122°13'913.1
2015-Mar-20 07:33N 38°01' W 122°24'1111.1
2015-Mar-20 06:33N 37°50' W 122°24'1110.9
2015-Mar-20 05:34N 37°46' W 122°37'12 8.8
2015-Mar-20 04:12N 37°35' W 122°40'811.7
2015-Mar-20 03:33N 37°27' W 122°40'1111.4
2015-Mar-20 02:33N 37°15' W 122°40'11 9.5
2015-Mar-20 01:24N 37°05' W 122°38'2111.1
2015-Mar-19 23:31N 36°46' W 122°26'  

Dump ship's entire track history